sensor_id;sensor_type;location;lat;lon;timestamp;pressure;altitude;pressure_sealevel;temperature;humidity
48630;BME280;34426;52.180;4.462;2023-05-01T00:00:53;101916.47;;;10.61;83.91
48630;BME280;34426;52.180;4.462;2023-05-01T00:03:20;101912.06;;;10.54;84.21
48630;BME280;34426;52.180;4.462;2023-05-01T00:05:48;101912.94;;;10.54;83.88
48630;BME280;34426;52.180;4.462;2023-05-01T00:08:15;101913.28;;;10.46;84.09
48630;BME280;34426;52.180;4.462;2023-05-01T00:10:42;101905.59;;;10.42;84.08
48630;BME280;34426;52.180;4.462;2023-05-01T00:13:11;101901.38;;;10.39;83.95
48630;BME280;34426;52.180;4.462;2023-05-01T00:15:40;101897.97;;;10.37;84.15
48630;BME280;34426;52.180;4.462;2023-05-01T00:18:08;101894.09;;;10.38;84.34
48630;BME280;34426;52.180;4.462;2023-05-01T00:20:35;101896.25;;;10.36;84.39
48630;BME280;34426;52.180;4.462;2023-05-01T00:23:01;101882.03;;;10.38;83.57
48630;BME280;34426;52.180;4.462;2023-05-01T00:25:29;101891.16;;;10.33;83.68
48630;BME280;34426;52.180;4.462;2023-05-01T00:27:56;101885.19;;;10.29;83.41
48630;BME280;34426;52.180;4.462;2023-05-01T00:30:25;101883.72;;;10.27;83.83
48630;BME280;34426;52.180;4.462;2023-05-01T00:32:52;101883.72;;;10.27;83.29
48630;BME280;34426;52.180;4.462;2023-05-01T00:35:20;101880.19;;;10.20;83.15
48630;BME280;34426;52.180;4.462;2023-05-01T00:37:47;101875.50;;;10.14;83.69
48630;BME280;34426;52.180;4.462;2023-05-01T00:40:15;101878.94;;;10.16;83.39
48630;BME280;34426;52.180;4.462;2023-05-01T00:42:42;101868.69;;;10.10;83.46
48630;BME280;34426;52.180;4.462;2023-05-01T00:45:10;101869.06;;;10.13;83.89
48630;BME280;34426;52.180;4.462;2023-05-01T00:47:39;101867.84;;;10.09;83.68
48630;BME280;34426;52.180;4.462;2023-05-01T00:50:08;101858.84;;;10.07;83.61
48630;BME280;34426;52.180;4.462;2023-05-01T00:52:35;101860.91;;;10.00;83.27
48630;BME280;34426;52.180;4.462;2023-05-01T00:55:04;101859.09;;;9.94;84.15
48630;BME280;34426;52.180;4.462;2023-05-01T00:57:31;101849.09;;;9.98;83.57
48630;BME280;34426;52.180;4.462;2023-05-01T00:59:59;101845.81;;;9.89;84.23
48630;BME280;34426;52.180;4.462;2023-05-01T01:02:26;101835.50;;;9.90;83.98
48630;BME280;34426;52.180;4.462;2023-05-01T01:04:55;101833.03;;;9.82;83.80
48630;BME280;34426;52.180;4.462;2023-05-01T01:07:30;101829.78;;;9.85;84.01
48630;BME280;34426;52.180;4.462;2023-05-01T01:10:06;101829.06;;;9.89;83.60
48630;BME280;34426;52.180;4.462;2023-05-01T01:12:41;101816.78;;;9.90;83.47
48630;BME280;34426;52.180;4.462;2023-05-01T01:15:15;101809.97;;;9.98;82.50
48630;BME280;34426;52.180;4.462;2023-05-01T01:17:50;101805.97;;;10.06;81.95
48630;BME280;34426;52.180;4.462;2023-05-01T01:20:42;101805.25;;;10.10;80.68
48630;BME280;34426;52.180;4.462;2023-05-01T01:29:26;101781.22;;;10.21;79.87
48630;BME280;34426;52.180;4.462;2023-05-01T01:32:08;101772.97;;;10.26;79.75
48630;BME280;34426;52.180;4.462;2023-05-01T01:34:44;101770.66;;;10.23;78.70
48630;BME280;34426;52.180;4.462;2023-05-01T01:37:18;101768.34;;;10.20;79.20
48630;BME280;34426;52.180;4.462;2023-05-01T01:39:51;101775.50;;;10.16;79.71
48630;BME280;34426;52.180;4.462;2023-05-01T01:42:23;101775.00;;;10.19;79.87
48630;BME280;34426;52.180;4.462;2023-05-01T01:44:54;101782.16;;;10.15;80.22
48630;BME280;34426;52.180;4.462;2023-05-01T01:47:25;101770.88;;;10.10;79.96
48630;BME280;34426;52.180;4.462;2023-05-01T01:49:59;101775.84;;;10.08;79.94
48630;BME280;34426;52.180;4.462;2023-05-01T01:52:28;101761.75;;;10.02;81.11
48630;BME280;34426;52.180;4.462;2023-05-01T01:55:02;101775.34;;;9.99;81.32
48630;BME280;34426;52.180;4.462;2023-05-01T01:57:32;101768.91;;;9.87;82.01
48630;BME280;34426;52.180;4.462;2023-05-01T02:00:00;101764.66;;;9.84;81.80
48630;BME280;34426;52.180;4.462;2023-05-01T02:02:28;101762.22;;;9.76;81.76
48630;BME280;34426;52.180;4.462;2023-05-01T02:04:58;101764.88;;;9.71;82.04
48630;BME280;34426;52.180;4.462;2023-05-01T02:07:27;101758.06;;;9.67;81.98
48630;BME280;34426;52.180;4.462;2023-05-01T02:09:56;101751.88;;;9.65;82.39
48630;BME280;34426;52.180;4.462;2023-05-01T02:12:25;101752.72;;;9.65;83.10
48630;BME280;34426;52.180;4.462;2023-05-01T02:14:53;101746.63;;;9.57;81.64
48630;BME280;34426;52.180;4.462;2023-05-01T02:17:21;101737.16;;;9.58;83.20
48630;BME280;34426;52.180;4.462;2023-05-01T02:19:50;101742.13;;;9.56;83.17
48630;BME280;34426;52.180;4.462;2023-05-01T02:22:20;101738.13;;;9.52;82.58
48630;BME280;34426;52.180;4.462;2023-05-01T02:24:48;101739.84;;;9.53;83.32
48630;BME280;34426;52.180;4.462;2023-05-01T02:27:19;101739.84;;;9.53;83.04
48630;BME280;34426;52.180;4.462;2023-05-01T02:29:46;101737.75;;;9.48;82.96
48630;BME280;34426;52.180;4.462;2023-05-01T02:32:13;101733.88;;;9.49;83.76
48630;BME280;34426;52.180;4.462;2023-05-01T02:34:41;101730.34;;;9.54;83.07
48630;BME280;34426;52.180;4.462;2023-05-01T02:37:10;101729.88;;;9.45;83.46
48630;BME280;34426;52.180;4.462;2023-05-01T02:39:39;101726.22;;;9.45;82.76
48630;BME280;34426;52.180;4.462;2023-05-01T02:42:08;101725.97;;;9.46;83.09
48630;BME280;34426;52.180;4.462;2023-05-01T02:44:41;101719.69;;;9.51;83.07
48630;BME280;34426;52.180;4.462;2023-05-01T02:47:10;101724.03;;;9.47;83.76
48630;BME280;34426;52.180;4.462;2023-05-01T02:49:41;101717.59;;;9.46;83.96
48630;BME280;34426;52.180;4.462;2023-05-01T02:52:08;101710.69;;;9.49;84.20
48630;BME280;34426;52.180;4.462;2023-05-01T02:54:38;101707.03;;;9.48;83.42
48630;BME280;34426;52.180;4.462;2023-05-01T02:57:06;101700.38;;;9.49;84.67
48630;BME280;34426;52.180;4.462;2023-05-01T02:59:33;101699.38;;;9.55;83.50
48630;BME280;34426;52.180;4.462;2023-05-01T03:02:00;101697.69;;;9.54;83.62
48630;BME280;34426;52.180;4.462;2023-05-01T03:04:28;101694.66;;;9.56;83.55
48630;BME280;34426;52.180;4.462;2023-05-01T03:06:55;101698.06;;;9.58;83.90
48630;BME280;34426;52.180;4.462;2023-05-01T03:09:23;101687.00;;;9.63;83.91
48630;BME280;34426;52.180;4.462;2023-05-01T03:11:52;101686.88;;;9.58;83.96
48630;BME280;34426;52.180;4.462;2023-05-01T03:14:19;101688.72;;;9.64;83.82
48630;BME280;34426;52.180;4.462;2023-05-01T03:16:47;101680.81;;;9.61;83.70
48630;BME280;34426;52.180;4.462;2023-05-01T03:19:14;101677.88;;;9.56;84.30
48630;BME280;34426;52.180;4.462;2023-05-01T03:21:42;101681.28;;;9.58;83.43
48630;BME280;34426;52.180;4.462;2023-05-01T03:24:09;101677.53;;;9.64;83.91
48630;BME280;34426;52.180;4.462;2023-05-01T03:26:36;101671.81;;;9.59;83.80
48630;BME280;34426;52.180;4.462;2023-05-01T03:29:06;101675.22;;;9.61;83.69
48630;BME280;34426;52.180;4.462;2023-05-01T03:31:33;101675.09;;;9.56;83.96
48630;BME280;34426;52.180;4.462;2023-05-01T03:34:00;101670.34;;;9.56;83.68
48630;BME280;34426;52.180;4.462;2023-05-01T03:36:28;101663.44;;;9.59;83.75
48630;BME280;34426;52.180;4.462;2023-05-01T03:38:55;101662.34;;;9.60;83.71
48630;BME280;34426;52.180;4.462;2023-05-01T03:41:22;101664.53;;;9.58;83.64
48630;BME280;34426;52.180;4.462;2023-05-01T03:43:50;101661.50;;;9.59;82.78
48630;BME280;34426;52.180;4.462;2023-05-01T03:46:19;101661.75;;;9.58;83.43
48630;BME280;34426;52.180;4.462;2023-05-01T03:48:46;101650.56;;;9.58;84.01
48630;BME280;34426;52.180;4.462;2023-05-01T03:51:14;101653.00;;;9.54;84.62
48630;BME280;34426;52.180;4.462;2023-05-01T03:53:41;101649.88;;;9.51;83.48
48630;BME280;34426;52.180;4.462;2023-05-01T03:56:08;101646.19;;;9.62;83.05
48630;BME280;34426;52.180;4.462;2023-05-01T03:58:36;101648.38;;;9.60;82.73
48630;BME280;34426;52.180;4.462;2023-05-01T04:01:04;101648.03;;;9.68;82.68
48630;BME280;34426;52.180;4.462;2023-05-01T04:03:33;101644.88;;;9.76;82.70
48630;BME280;34426;52.180;4.462;2023-05-01T04:06:01;101646.09;;;9.80;81.87
48630;BME280;34426;52.180;4.462;2023-05-01T04:08:28;101646.09;;;9.80;81.00
48630;BME280;34426;52.180;4.462;2023-05-01T04:10:56;101648.88;;;9.80;81.09
48630;BME280;34426;52.180;4.462;2023-05-01T04:13:23;101646.69;;;9.82;81.81
48630;BME280;34426;52.180;4.462;2023-05-01T04:15:51;101643.41;;;9.85;82.81
48630;BME280;34426;52.180;4.462;2023-05-01T04:18:18;101642.09;;;9.88;81.89
48630;BME280;34426;52.180;4.462;2023-05-01T04:20:47;101642.81;;;9.83;82.38
48630;BME280;34426;52.180;4.462;2023-05-01T04:23:14;101645.72;;;9.88;82.72
48630;BME280;34426;52.180;4.462;2023-05-01T04:25:41;101649.00;;;9.85;82.17
48630;BME280;34426;52.180;4.462;2023-05-01T04:28:11;101636.63;;;9.81;81.35
48630;BME280;34426;52.180;4.462;2023-05-01T04:30:38;101641.97;;;9.83;82.26
48630;BME280;34426;52.180;4.462;2023-05-01T04:33:06;101639.41;;;9.81;81.48
48630;BME280;34426;52.180;4.462;2023-05-01T04:35:34;101641.72;;;9.84;81.24
48630;BME280;34426;52.180;4.462;2023-05-01T04:38:04;101636.84;;;9.91;81.49
48630;BME280;34426;52.180;4.462;2023-05-01T04:40:35;101636.63;;;9.81;80.76
48630;BME280;34426;52.180;4.462;2023-05-01T04:43:03;101635.28;;;9.95;81.53
48630;BME280;34426;52.180;4.462;2023-05-01T04:45:31;101631.84;;;10.05;80.46
48630;BME280;34426;52.180;4.462;2023-05-01T04:47:59;101637.66;;;10.15;79.49
48630;BME280;34426;52.180;4.462;2023-05-01T04:50:27;101634.75;;;10.22;79.33
48630;BME280;34426;52.180;4.462;2023-05-01T04:52:54;101638.00;;;10.19;78.98
48630;BME280;34426;52.180;4.462;2023-05-01T04:55:24;101634.75;;;10.22;78.84
48630;BME280;34426;52.180;4.462;2023-05-01T04:57:52;101636.31;;;10.18;77.91
48630;BME280;34426;52.180;4.462;2023-05-01T05:00:20;101629.78;;;10.24;79.24
48630;BME280;34426;52.180;4.462;2023-05-01T05:02:47;101641.06;;;10.29;78.80
48630;BME280;34426;52.180;4.462;2023-05-01T05:05:15;101636.31;;;10.29;78.10
48630;BME280;34426;52.180;4.462;2023-05-01T05:07:42;101628.97;;;10.40;78.38
48630;BME280;34426;52.180;4.462;2023-05-01T05:10:10;101631.78;;;10.40;77.48
48630;BME280;34426;52.180;4.462;2023-05-01T05:12:40;101630.19;;;10.44;78.07
48630;BME280;34426;52.180;4.462;2023-05-01T05:15:08;101639.53;;;10.50;77.62
48630;BME280;34426;52.180;4.462;2023-05-01T05:17:35;101632.59;;;10.52;77.36
48630;BME280;34426;52.180;4.462;2023-05-01T05:20:03;101635.03;;;10.49;76.61
48630;BME280;34426;52.180;4.462;2023-05-01T05:22:31;101623.44;;;10.57;76.38
48630;BME280;34426;52.180;4.462;2023-05-01T05:25:02;101627.19;;;10.62;75.82
48630;BME280;34426;52.180;4.462;2023-05-01T05:27:29;101629.41;;;10.60;75.96
48630;BME280;34426;52.180;4.462;2023-05-01T05:29:59;101634.50;;;10.63;75.57
48630;BME280;34426;52.180;4.462;2023-05-01T05:32:27;101633.03;;;10.61;75.91
48630;BME280;34426;52.180;4.462;2023-05-01T05:34:54;101638.88;;;10.59;75.23
48630;BME280;34426;52.180;4.462;2023-05-01T05:37:21;101641.19;;;10.62;75.85
48630;BME280;34426;52.180;4.462;2023-05-01T05:39:49;101633.78;;;10.56;75.00
48630;BME280;34426;52.180;4.462;2023-05-01T05:42:16;101635.50;;;10.57;75.79
48630;BME280;34426;52.180;4.462;2023-05-01T05:44:43;101636.69;;;10.61;75.46
48630;BME280;34426;52.180;4.462;2023-05-01T05:47:13;101635.34;;;10.64;75.74
48630;BME280;34426;52.180;4.462;2023-05-01T05:49:40;101630.72;;;10.70;75.69
48630;BME280;34426;52.180;4.462;2023-05-01T05:52:07;101629.81;;;10.81;75.39
48630;BME280;34426;52.180;4.462;2023-05-01T05:54:34;101626.06;;;10.75;74.40
48630;BME280;34426;52.180;4.462;2023-05-01T05:57:01;101622.50;;;10.80;73.87
48630;BME280;34426;52.180;4.462;2023-05-01T05:59:29;101627.69;;;10.88;74.74
48630;BME280;34426;52.180;4.462;2023-05-01T06:01:56;101627.28;;;10.96;73.62
48630;BME280;34426;52.180;4.462;2023-05-01T06:04:25;101626.19;;;10.97;73.41
48630;BME280;34426;52.180;4.462;2023-05-01T06:06:51;101620.66;;;11.02;73.02
48630;BME280;34426;52.180;4.462;2023-05-01T06:09:16;101621.47;;;11.14;72.91
48630;BME280;34426;52.180;4.462;2023-05-01T06:11:42;101623.06;;;11.27;72.75
48630;BME280;34426;52.180;4.462;2023-05-01T06:14:07;101618.31;;;11.27;71.65
48630;BME280;34426;52.180;4.462;2023-05-01T06:16:32;101617.72;;;11.42;72.16
48630;BME280;34426;52.180;4.462;2023-05-01T06:18:58;101618.66;;;11.48;71.90
48630;BME280;34426;52.180;4.462;2023-05-01T06:21:25;101609.22;;;11.54;71.95
48630;BME280;34426;52.180;4.462;2023-05-01T06:23:51;101616.88;;;11.58;71.38
48630;BME280;34426;52.180;4.462;2023-05-01T06:26:16;101620.00;;;11.62;70.28
48630;BME280;34426;52.180;4.462;2023-05-01T06:28:42;101618.44;;;11.71;70.86
48630;BME280;34426;52.180;4.462;2023-05-01T06:31:07;101631.94;;;11.74;71.10
48630;BME280;34426;52.180;4.462;2023-05-01T06:33:33;101616.81;;;11.75;70.38
48630;BME280;34426;52.180;4.462;2023-05-01T06:35:58;101624.25;;;11.81;70.92
48630;BME280;34426;52.180;4.462;2023-05-01T06:38:25;101621.50;;;11.86;70.82
48630;BME280;34426;52.180;4.462;2023-05-01T06:40:50;101623.22;;;11.87;69.99
48630;BME280;34426;52.180;4.462;2023-05-01T06:43:16;101623.88;;;11.94;69.92
48630;BME280;34426;52.180;4.462;2023-05-01T06:45:41;101616.41;;;12.00;70.29
48630;BME280;34426;52.180;4.462;2023-05-01T06:48:07;101619.78;;;12.02;69.80
48630;BME280;34426;52.180;4.462;2023-05-01T06:50:32;101618.69;;;12.03;69.24
48630;BME280;34426;52.180;4.462;2023-05-01T06:52:58;101618.44;;;12.05;69.53
48630;BME280;34426;52.180;4.462;2023-05-01T06:55:25;101621.22;;;12.05;69.50
48630;BME280;34426;52.180;4.462;2023-05-01T06:57:50;101618.25;;;12.11;69.75
48630;BME280;34426;52.180;4.462;2023-05-01T07:00:17;101617.50;;;12.21;69.77
48630;BME280;34426;52.180;4.462;2023-05-01T07:02:43;101614.25;;;12.29;69.01
48630;BME280;34426;52.180;4.462;2023-05-01T07:05:08;101618.22;;;12.33;68.65
48630;BME280;34426;52.180;4.462;2023-05-01T07:07:34;101614.91;;;12.36;68.86
48630;BME280;34426;52.180;4.462;2023-05-01T07:09:59;101611.66;;;12.44;69.50
48630;BME280;34426;52.180;4.462;2023-05-01T07:12:27;101619.78;;;12.46;68.97
48630;BME280;34426;52.180;4.462;2023-05-01T07:14:52;101617.38;;;12.54;68.74
48630;BME280;34426;52.180;4.462;2023-05-01T07:17:18;101620.53;;;12.63;68.99
48630;BME280;34426;52.180;4.462;2023-05-01T07:19:43;101617.00;;;12.73;68.44
48630;BME280;34426;52.180;4.462;2023-05-01T07:22:08;101610.09;;;12.80;67.84
48630;BME280;34426;52.180;4.462;2023-05-01T07:24:34;101618.03;;;12.88;68.19
48630;BME280;34426;52.180;4.462;2023-05-01T07:26:59;101620.03;;;12.93;68.40
48630;BME280;34426;52.180;4.462;2023-05-01T07:29:26;101620.84;;;12.88;67.09
48630;BME280;34426;52.180;4.462;2023-05-01T07:31:52;101612.09;;;12.85;67.02
48630;BME280;34426;52.180;4.462;2023-05-01T07:34:17;101605.31;;;12.81;66.64
48630;BME280;34426;52.180;4.462;2023-05-01T07:36:42;101607.00;;;12.82;67.70
48630;BME280;34426;52.180;4.462;2023-05-01T07:39:08;101603.41;;;12.86;67.32
48630;BME280;34426;52.180;4.462;2023-05-01T07:41:33;101611.41;;;12.99;66.78
48630;BME280;34426;52.180;4.462;2023-05-01T07:43:59;101603.06;;;13.10;66.69
48630;BME280;34426;52.180;4.462;2023-05-01T07:46:26;101606.06;;;13.25;66.36
48630;BME280;34426;52.180;4.462;2023-05-01T07:48:51;101598.34;;;13.47;66.49
48630;BME280;34426;52.180;4.462;2023-05-01T07:51:17;101611.06;;;13.55;66.02
48630;BME280;34426;52.180;4.462;2023-05-01T07:53:42;101603.22;;;13.57;66.02
48630;BME280;34426;52.180;4.462;2023-05-01T07:56:08;101598.19;;;13.64;65.96
48630;BME280;34426;52.180;4.462;2023-05-01T07:58:33;101601.66;;;13.76;65.10
48630;BME280;34426;52.180;4.462;2023-05-01T08:00:59;101608.47;;;13.85;64.92
48630;BME280;34426;52.180;4.462;2023-05-01T08:03:27;101614.72;;;13.97;64.39
48630;BME280;34426;52.180;4.462;2023-05-01T08:05:53;101612.25;;;14.06;63.96
48630;BME280;34426;52.180;4.462;2023-05-01T08:08:18;101610.31;;;14.12;63.27
48630;BME280;34426;52.180;4.462;2023-05-01T08:10:44;101625.50;;;14.11;63.16
48630;BME280;34426;52.180;4.462;2023-05-01T08:13:09;101622.19;;;14.24;62.23
48630;BME280;34426;52.180;4.462;2023-05-01T08:15:35;101620.53;;;14.28;62.67
48630;BME280;34426;52.180;4.462;2023-05-01T08:18:00;101620.81;;;14.37;63.57
48630;BME280;34426;52.180;4.462;2023-05-01T08:20:27;101624.00;;;14.45;63.84
48630;BME280;34426;52.180;4.462;2023-05-01T08:22:52;101634.16;;;14.51;62.55
48630;BME280;34426;52.180;4.462;2023-05-01T08:25:18;101632.50;;;14.60;61.71
48630;BME280;34426;52.180;4.462;2023-05-01T08:27:43;101629.44;;;14.67;60.38
48630;BME280;34426;52.180;4.462;2023-05-01T08:30:09;101628.28;;;14.58;59.47
48630;BME280;34426;52.180;4.462;2023-05-01T08:32:35;101631.94;;;14.58;60.10
48630;BME280;34426;52.180;4.462;2023-05-01T08:35:00;101626.31;;;14.58;60.24
48630;BME280;34426;52.180;4.462;2023-05-01T08:37:27;101619.53;;;14.54;60.57
48630;BME280;34426;52.180;4.462;2023-05-01T08:39:53;101623.47;;;14.53;61.28
48630;BME280;34426;52.180;4.462;2023-05-01T08:42:18;101626.34;;;14.74;59.84
48630;BME280;34426;52.180;4.462;2023-05-01T08:44:45;101626.38;;;14.89;58.12
48630;BME280;34426;52.180;4.462;2023-05-01T08:47:16;101627.25;;;15.00;57.09
48630;BME280;34426;52.180;4.462;2023-05-01T08:49:42;101627.00;;;15.06;56.17
48630;BME280;34426;52.180;4.462;2023-05-01T08:52:10;101634.03;;;15.04;56.38
48630;BME280;34426;52.180;4.462;2023-05-01T08:54:38;101632.06;;;15.09;57.27
48630;BME280;34426;52.180;4.462;2023-05-01T08:57:08;101644.47;;;15.08;57.46
48630;BME280;34426;52.180;4.462;2023-05-01T08:59:35;101648.41;;;15.07;57.01
48630;BME280;34426;52.180;4.462;2023-05-01T09:02:01;101647.84;;;15.05;56.84
48630;BME280;34426;52.180;4.462;2023-05-01T09:04:29;101652.91;;;15.08;57.62
48630;BME280;34426;52.180;4.462;2023-05-01T09:06:56;101650.94;;;15.09;57.68
48630;BME280;34426;52.180;4.462;2023-05-01T09:09:22;101651.78;;;15.04;57.31
48630;BME280;34426;52.180;4.462;2023-05-01T09:11:49;101656.28;;;15.05;58.39
48630;BME280;34426;52.180;4.462;2023-05-01T09:14:15;101659.66;;;15.02;59.45
48630;BME280;34426;52.180;4.462;2023-05-01T09:16:40;101654.88;;;14.97;60.38
48630;BME280;34426;52.180;4.462;2023-05-01T09:19:06;101664.13;;;14.88;59.99
48630;BME280;34426;52.180;4.462;2023-05-01T09:21:33;101668.31;;;14.70;59.21
48630;BME280;34426;52.180;4.462;2023-05-01T09:23:59;101669.66;;;14.57;60.13
48630;BME280;34426;52.180;4.462;2023-05-01T09:26:24;101667.91;;;14.46;60.74
48630;BME280;34426;52.180;4.462;2023-05-01T09:28:51;101676.81;;;14.28;61.06
48630;BME280;34426;52.180;4.462;2023-05-01T09:31:20;101680.34;;;14.08;61.16
48630;BME280;34426;52.180;4.462;2023-05-01T09:33:51;101679.38;;;13.92;62.85
48630;BME280;34426;52.180;4.462;2023-05-01T09:36:16;101689.63;;;13.72;65.62
48630;BME280;34426;52.180;4.462;2023-05-01T09:38:42;101696.06;;;13.35;66.04
48630;BME280;34426;52.180;4.462;2023-05-01T09:41:07;101695.66;;;12.99;67.81
48630;BME280;34426;52.180;4.462;2023-05-01T09:43:33;101702.06;;;12.73;68.58
48630;BME280;34426;52.180;4.462;2023-05-01T09:46:01;101708.22;;;12.48;69.84
48630;BME280;34426;52.180;4.462;2023-05-01T09:48:27;101708.44;;;12.25;70.48
48630;BME280;34426;52.180;4.462;2023-05-01T09:50:52;101716.41;;;12.11;71.60
48630;BME280;34426;52.180;4.462;2023-05-01T09:53:18;101716.22;;;12.01;72.72
48630;BME280;34426;52.180;4.462;2023-05-01T09:55:59;101714.97;;;11.92;73.45
48630;BME280;34426;52.180;4.462;2023-05-01T09:58:27;101715.63;;;11.82;74.56
48630;BME280;34426;52.180;4.462;2023-05-01T10:00:52;101719.53;;;11.81;75.11
48630;BME280;34426;52.180;4.462;2023-05-01T10:03:19;101720.53;;;11.75;75.81
48630;BME280;34426;52.180;4.462;2023-05-01T10:05:45;101723.69;;;11.62;76.31
48630;BME280;34426;52.180;4.462;2023-05-01T10:08:11;101729.38;;;11.67;76.90
48630;BME280;34426;52.180;4.462;2023-05-01T10:10:36;101735.50;;;11.64;76.74
48630;BME280;34426;52.180;4.462;2023-05-01T10:13:12;101735.41;;;11.59;77.07
48630;BME280;34426;52.180;4.462;2023-05-01T10:15:38;101731.91;;;11.52;78.20
48630;BME280;34426;52.180;4.462;2023-05-01T10:18:03;101731.50;;;11.60;79.59
48630;BME280;34426;52.180;4.462;2023-05-01T10:20:30;101732.59;;;11.59;78.82
48630;BME280;34426;52.180;4.462;2023-05-01T10:22:57;101726.81;;;11.49;79.35
48630;BME280;34426;52.180;4.462;2023-05-01T10:25:24;101732.91;;;11.46;79.91
48630;BME280;34426;52.180;4.462;2023-05-01T10:27:56;101729.72;;;11.54;80.62
48630;BME280;34426;52.180;4.462;2023-05-01T10:30:22;101728.25;;;11.51;81.38
48630;BME280;34426;52.180;4.462;2023-05-01T10:32:50;101723.94;;;11.60;81.72
48630;BME280;34426;52.180;4.462;2023-05-01T10:35:20;101727.69;;;11.66;81.55
48630;BME280;34426;52.180;4.462;2023-05-01T10:37:49;101722.84;;;11.78;81.76
48630;BME280;34426;52.180;4.462;2023-05-01T10:40:47;101717.34;;;11.83;81.81
48630;BME280;34426;52.180;4.462;2023-05-01T10:43:13;101721.59;;;11.86;82.47
48630;BME280;34426;52.180;4.462;2023-05-01T10:45:39;101714.03;;;11.86;83.41
48630;BME280;34426;52.180;4.462;2023-05-01T10:48:05;101707.66;;;11.91;84.12
48630;BME280;34426;52.180;4.462;2023-05-01T10:50:30;101709.34;;;11.92;84.18
48630;BME280;34426;52.180;4.462;2023-05-01T10:53:16;101705.28;;;11.99;83.65
48630;BME280;34426;52.180;4.462;2023-05-01T10:55:42;101711.03;;;12.10;84.05
48630;BME280;34426;52.180;4.462;2023-05-01T10:58:08;101710.06;;;12.21;84.05
48630;BME280;34426;52.180;4.462;2023-05-01T11:00:34;101716.75;;;12.37;83.29
48630;BME280;34426;52.180;4.462;2023-05-01T11:03:34;101711.88;;;12.49;83.00
48630;BME280;34426;52.180;4.462;2023-05-01T11:06:06;101711.13;;;12.58;80.81
48630;BME280;34426;52.180;4.462;2023-05-01T11:08:34;101716.31;;;12.66;80.43
48630;BME280;34426;52.180;4.462;2023-05-01T11:13:59;101714.50;;;13.04;80.73
48630;BME280;34426;52.180;4.462;2023-05-01T11:16:40;101709.75;;;13.26;80.50
48630;BME280;34426;52.180;4.462;2023-05-01T11:19:07;101708.81;;;13.48;80.52
48630;BME280;34426;52.180;4.462;2023-05-01T11:21:33;101707.84;;;13.64;78.40
48630;BME280;34426;52.180;4.462;2023-05-01T11:24:01;101696.16;;;13.77;77.62
48630;BME280;34426;52.180;4.462;2023-05-01T11:26:27;101704.31;;;13.79;77.65
48630;BME280;34426;52.180;4.462;2023-05-01T11:28:53;101697.31;;;13.86;77.18
48630;BME280;34426;52.180;4.462;2023-05-01T11:31:20;101693.47;;;13.97;76.70
48630;BME280;34426;52.180;4.462;2023-05-01T11:33:46;101695.47;;;14.02;76.18
48630;BME280;34426;52.180;4.462;2023-05-01T11:36:12;101694.28;;;14.35;76.33
48630;BME280;34426;52.180;4.462;2023-05-01T11:38:37;101696.75;;;14.74;75.07
48630;BME280;34426;52.180;4.462;2023-05-01T11:41:04;101698.50;;;14.90;74.54
48630;BME280;34426;52.180;4.462;2023-05-01T11:43:30;101692.06;;;15.05;73.12
48630;BME280;34426;52.180;4.462;2023-05-01T11:45:55;101694.94;;;15.35;72.93
48630;BME280;34426;52.180;4.462;2023-05-01T11:48:21;101693.34;;;15.59;72.97
48630;BME280;34426;52.180;4.462;2023-05-01T11:50:46;101693.59;;;15.78;73.38
48630;BME280;34426;52.180;4.462;2023-05-01T11:53:13;101696.41;;;15.78;72.46
48630;BME280;34426;52.180;4.462;2023-05-01T11:55:42;101699.19;;;16.24;70.37
48630;BME280;34426;52.180;4.462;2023-05-01T11:58:09;101699.47;;;16.27;68.18
48630;BME280;34426;52.180;4.462;2023-05-01T12:00:36;101699.09;;;16.49;66.73
48630;BME280;34426;52.180;4.462;2023-05-01T12:03:03;101695.56;;;16.93;64.81
48630;BME280;34426;52.180;4.462;2023-05-01T12:05:30;101703.66;;;17.15;66.19
48630;BME280;34426;52.180;4.462;2023-05-01T12:08:06;101692.56;;;17.28;64.04
48630;BME280;34426;52.180;4.462;2023-05-01T12:10:32;101688.91;;;17.23;65.35
48630;BME280;34426;52.180;4.462;2023-05-01T12:12:59;101687.25;;;17.56;63.46
48630;BME280;34426;52.180;4.462;2023-05-01T12:15:26;101687.84;;;17.53;64.06
48630;BME280;34426;52.180;4.462;2023-05-01T12:17:51;101681.56;;;17.66;62.99
48630;BME280;34426;52.180;4.462;2023-05-01T12:20:33;101692.38;;;17.54;63.52
48630;BME280;34426;52.180;4.462;2023-05-01T12:22:58;101677.53;;;17.72;61.12
48630;BME280;34426;52.180;4.462;2023-05-01T12:25:28;101681.94;;;17.83;59.87
48630;BME280;34426;52.180;4.462;2023-05-01T12:27:57;101683.03;;;17.87;62.27
48630;BME280;34426;52.180;4.462;2023-05-01T12:30:24;101689.75;;;17.97;62.48
48630;BME280;34426;52.180;4.462;2023-05-01T12:32:51;101686.16;;;18.44;60.80
48630;BME280;34426;52.180;4.462;2023-05-01T12:35:16;101684.38;;;18.77;56.22
48630;BME280;34426;52.180;4.462;2023-05-01T12:37:42;101681.03;;;19.12;55.58
48630;BME280;34426;52.180;4.462;2023-05-01T12:40:11;101681.88;;;19.50;51.42
48630;BME280;34426;52.180;4.462;2023-05-01T12:42:37;101679.66;;;19.66;51.73
48630;BME280;34426;52.180;4.462;2023-05-01T12:45:03;101682.81;;;19.27;55.00
48630;BME280;34426;52.180;4.462;2023-05-01T12:47:35;101685.03;;;19.11;49.69
48630;BME280;34426;52.180;4.462;2023-05-01T12:50:06;101685.31;;;18.43;53.36
48630;BME280;34426;52.180;4.462;2023-05-01T12:52:32;101676.59;;;18.11;54.72
48630;BME280;34426;52.180;4.462;2023-05-01T12:55:01;101684.91;;;17.73;53.78
48630;BME280;34426;52.180;4.462;2023-05-01T12:57:27;101692.97;;;17.46;56.15
48630;BME280;34426;52.180;4.462;2023-05-01T12:59:58;101692.59;;;17.23;57.06
48630;BME280;34426;52.180;4.462;2023-05-01T13:02:32;101698.63;;;17.02;57.70
48630;BME280;34426;52.180;4.462;2023-05-01T13:05:07;101710.06;;;16.81;57.54